»·PEaware :: ARG1301 KPDX-KRDD

ARG1301 :: KPDX-KRDD

FLIGHT INFORMATION

Flight Status: Arrived
Operator:
Aerolineas Argentinas
More flights by this operator :: More flights under this callsign
Pilot: Luis S. (63)
Aircraft: BOEING 737-800
(B738)
More flights by this aircraft type
Origin: KPDX Portland Intl
United States
Destination: KRDD Redding Mun
United States
More flights between these airports :: More routes between these airports
Route: +PTLD1 OED
File this flight plan on PilotEdge
Remarks:
Altitude:
(Current/Filed)
31,000ft
Speed:
(Current/Filed)
350kts
Departed: 15-Mar-19 08:36 PM
Arrived: 15-Mar-19 09:35 PM
Distance/Time
Traveled:
305nm/0:59
Distance/Time
To Go:
Arrived

Flight Plot

Page will automatically refresh every two minutes.

Flight plan parsing failed; only flown route is shown


Map Options




Map Legend


Flown Route
Filed Route
Departure Airport
Arrival Airport
Navaid (VOR, NDB)
Fix

Horizontal Profiles

Position Reports

Time Latitude Longitude Heading Altitude Ground
Speed
15-Mar-19 20:08 45.587492 -122.594523 42 33ft 0kts
15-Mar-19 20:09 45.587492 -122.594523 42 33ft 0kts
15-Mar-19 20:10 45.587492 -122.594523 42 33ft 0kts
15-Mar-19 20:11 45.587492 -122.594523 42 33ft 0kts
15-Mar-19 20:12 45.587492 -122.594523 42 33ft 0kts
15-Mar-19 20:13 45.587492 -122.594523 42 33ft 0kts
15-Mar-19 20:14 45.587492 -122.594523 42 33ft 0kts
15-Mar-19 20:15 45.587492 -122.594523 42 33ft 0kts
15-Mar-19 20:16 45.587492 -122.594523 42 33ft 0kts
15-Mar-19 20:17 45.587492 -122.594523 42 33ft 0kts
15-Mar-19 20:18 45.587492 -122.594523 42 33ft 0kts
15-Mar-19 20:19 45.587492 -122.594523 42 33ft 0kts
15-Mar-19 20:20 45.587492 -122.594523 42 33ft 0kts
15-Mar-19 20:21 45.587492 -122.594523 42 33ft 0kts
15-Mar-19 20:22 45.587492 -122.594523 42 33ft 0kts
15-Mar-19 20:23 45.587492 -122.594523 42 33ft 0kts
15-Mar-19 20:24 45.587492 -122.594523 42 33ft 0kts
15-Mar-19 20:25 45.587492 -122.594523 42 33ft 0kts
15-Mar-19 20:26 45.587492 -122.594523 42 33ft 0kts
15-Mar-19 20:27 45.587245 -122.594839 41 33ft 2kts
15-Mar-19 20:28 45.587241 -122.595918 292 33ft 17kts
15-Mar-19 20:29 45.589976 -122.602995 295 33ft 19kts
15-Mar-19 20:30 45.592115 -122.609099 289 33ft 17kts
15-Mar-19 20:31 45.594365 -122.614817 298 33ft 16kts
15-Mar-19 20:32 45.596072 -122.619132 297 33ft 0kts
15-Mar-19 20:33 45.596194 -122.619474 296 33ft 11kts
15-Mar-19 20:34 45.594746 -122.620606 116 33ft 0kts
15-Mar-19 20:35 45.583718 -122.591847 117 392ft 161kts
15-Mar-19 20:36 45.558528 -122.532222 121 2628ft 186kts
15-Mar-19 20:37 45.513715 -122.536890 223 4984ft 201kts
15-Mar-19 20:38 45.461061 -122.569936 179 6947ft 219kts
15-Mar-19 20:39 45.395150 -122.573746 179 8604ft 251kts
15-Mar-19 20:40 45.324627 -122.577373 180 10133ft 280kts
15-Mar-19 20:41 45.246189 -122.581244 181 12136ft 287kts
15-Mar-19 20:42 45.166236 -122.585284 180 13981ft 294kts
15-Mar-19 20:43 45.084187 -122.589609 180 15725ft 299kts
15-Mar-19 20:44 45.002456 -122.593986 181 17373ft 304kts
15-Mar-19 20:45 44.917696 -122.598637 181 18933ft 311kts
15-Mar-19 20:46 44.830551 -122.603593 181 20430ft 318kts
15-Mar-19 20:47 44.741773 -122.608856 181 21848ft 325kts
15-Mar-19 20:48 44.651101 -122.614450 181 23205ft 333kts
15-Mar-19 20:49 44.558959 -122.620337 181 24508ft 340kts
15-Mar-19 20:50 44.464905 -122.626618 181 25739ft 347kts
15-Mar-19 20:51 44.370267 -122.633157 181 26930ft 354kts
15-Mar-19 20:52 44.272829 -122.640233 181 28024ft 360kts
15-Mar-19 20:54 44.173560 -122.650160 184 29202ft 358kts
15-Mar-19 20:55 44.074564 -122.666014 184 30208ft 361kts
15-Mar-19 20:56 43.975825 -122.676196 181 31046ft 371kts
15-Mar-19 20:57 43.869974 -122.687191 184 31240ft 401kts
15-Mar-19 20:58 43.755567 -122.706231 184 31196ft 419kts
15-Mar-19 20:59 43.641486 -122.717841 182 31027ft 427kts
15-Mar-19 21:00 43.524115 -122.728178 182 30941ft 430kts
15-Mar-19 21:01 43.405926 -122.739272 182 30922ft 425kts
15-Mar-19 21:02 43.291930 -122.750969 182 29228ft 408kts
15-Mar-19 21:03 43.180474 -122.763627 183 27897ft 406kts
15-Mar-19 21:04 43.069343 -122.777694 184 26692ft 398kts
15-Mar-19 21:05 42.961718 -122.792973 186 25776ft 385kts
15-Mar-19 21:06 42.856331 -122.809917 188 24908ft 380kts
15-Mar-19 21:07 42.754390 -122.828886 189 24033ft 370kts
15-Mar-19 21:08 42.654529 -122.850859 191 23893ft 366kts
15-Mar-19 21:09 42.555001 -122.876209 191 23892ft 367kts
15-Mar-19 21:09 42.471339 -122.896402 191 23891ft 369kts
15-Mar-19 21:11 42.354230 -122.898999 168 23332ft 370kts
15-Mar-19 21:12 42.257833 -122.862047 166 22845ft 367kts
15-Mar-19 21:13 42.161235 -122.822743 165 22134ft 363kts
15-Mar-19 21:13 42.083720 -122.791177 165 21305ft 357kts
15-Mar-19 21:15 41.974796 -122.747220 165 20139ft 348kts
15-Mar-19 21:16 41.885754 -122.711467 165 19123ft 342kts
15-Mar-19 21:16 41.810763 -122.681515 165 18279ft 336kts
15-Mar-19 21:17 41.723887 -122.646974 165 17273ft 330kts
15-Mar-19 21:19 41.623390 -122.607153 165 16089ft 323kts
15-Mar-19 21:19 41.552242 -122.579090 165 15242ft 318kts
15-Mar-19 21:20 41.468594 -122.546226 165 14741ft 313kts
15-Mar-19 21:21 41.385642 -122.510822 165 14731ft 315kts
15-Mar-19 21:22 41.302181 -122.478440 165 14730ft 315kts
15-Mar-19 21:23 41.218495 -122.446421 165 14736ft 315kts
15-Mar-19 21:24 41.134587 -122.418036 169 14070ft 312kts
15-Mar-19 21:25 41.050749 -122.395145 169 13005ft 305kts
15-Mar-19 21:26 40.970518 -122.374729 169 11656ft 292kts
15-Mar-19 21:27 40.892280 -122.358031 169 10119ft 275kts
15-Mar-19 21:28 40.819323 -122.345746 169 8876ft 261kts
15-Mar-19 21:29 40.749726 -122.337084 171 7924ft 252kts
15-Mar-19 21:30 40.681057 -122.322184 167 5663ft 250kts
15-Mar-19 21:31 40.614365 -122.304199 166 3198ft 256kts
15-Mar-19 21:32 40.553512 -122.295574 180 1278ft 186kts
15-Mar-19 21:33 40.511807 -122.294842 181 511ft 82kts
15-Mar-19 21:34 40.502268 -122.294871 179 511ft 19kts
15-Mar-19 21:35 40.502433 -122.296948 317 511ft 21kts
15-Mar-19 21:36 40.507953 -122.299429 348 511ft 21kts

Navigation Log

Ident Type
Flight plan parsing failed, navigation log unavailable